N978PJ FTTJ-FGSL
Flight info
| Callsign | N978PJ |
|---|---|
| Flight time | 1h 34m |
| Altitude | 47000 |
| Route | FTTJ/05 FL G857 POTED TJL BILEX TJR AGROD KABRI SEXAT EBRO1A ILS22 AMPUS FGSL/22 |
| Aircraft | C750/M-SDE3FGIJ1KRWXY/LB1 |
Departure
| Time | 2026-04-22 07:30 |
|---|---|
| Airport | N'Djamena International Airport (FTTJ) |
Arrival
| Time | 2026-04-22 09:05 |
|---|---|
| Airport | Malabo International Airport (FGSL) |
| Time | Latitude | Longitude | Altitude | Speed | Heading |
|---|---|---|---|---|---|
| 2026-04-22 07:04 | 12.12865 | 15.03208 | 973 ft | 0 kts | 175° |
| 2026-04-22 07:22 | 12.12878 | 15.03206 | 973 ft | 4 kts | 175° |
| 2026-04-22 07:22 | 12.12904 | 15.03210 | 980 ft | 4 kts | 220° |
| 2026-04-22 07:23 | 12.12911 | 15.03216 | 981 ft | 0 kts | 216° |
| 2026-04-22 07:25 | 12.12909 | 15.03215 | 981 ft | 2 kts | 218° |
| 2026-04-22 07:25 | 12.12894 | 15.03184 | 983 ft | 6 kts | 245° |
| 2026-04-22 07:26 | 12.12871 | 15.03148 | 977 ft | 7 kts | 227° |
| 2026-04-22 07:26 | 12.12846 | 15.03094 | 974 ft | 10 kts | 298° |
| 2026-04-22 07:26 | 12.12893 | 15.03040 | 978 ft | 10 kts | 314° |
| 2026-04-22 07:26 | 12.12937 | 15.02995 | 975 ft | 9 kts | 314° |
| 2026-04-22 07:27 | 12.12913 | 15.02923 | 975 ft | 18 kts | 225° |
| 2026-04-22 07:27 | 12.12788 | 15.02794 | 975 ft | 31 kts | 226° |
| 2026-04-22 07:27 | 12.12641 | 15.02641 | 975 ft | 29 kts | 225° |
| 2026-04-22 07:27 | 12.12508 | 15.02533 | 974 ft | 16 kts | 176° |
| 2026-04-22 07:28 | 12.12547 | 15.02541 | 974 ft | 7 kts | 45° |
| 2026-04-22 07:28 | 12.12552 | 15.02547 | 974 ft | 0 kts | 45° |
| 2026-04-22 07:29 | 12.12553 | 15.02548 | 974 ft | 4 kts | 45° |
| 2026-04-22 07:30 | 12.12823 | 15.02829 | 975 ft | 116 kts | 45° |
| 2026-04-22 07:30 | 12.13563 | 15.03603 | 1081 ft | 171 kts | 46° |
| 2026-04-22 07:30 | 12.14437 | 15.04533 | 1572 ft | 191 kts | 48° |
| 2026-04-22 07:30 | 12.15456 | 15.05593 | 2055 ft | 222 kts | 48° |
| 2026-04-22 07:31 | 12.16603 | 15.06753 | 2712 ft | 244 kts | 44° |
| 2026-04-22 07:31 | 12.18228 | 15.07443 | 3515 ft | 262 kts | 6° |
| 2026-04-22 07:31 | 12.19974 | 15.06972 | 4540 ft | 264 kts | 327° |
| 2026-04-22 07:31 | 12.21109 | 15.05573 | 5463 ft | 263 kts | 290° |
| 2026-04-22 07:32 | 12.21225 | 15.03759 | 6355 ft | 258 kts | 253° |
| 2026-04-22 07:32 | 12.20265 | 15.02259 | 7233 ft | 256 kts | 217° |
| 2026-04-22 07:32 | 12.18649 | 15.01518 | 8198 ft | 256 kts | 194° |
| 2026-04-22 07:32 | 12.16890 | 15.01102 | 9180 ft | 264 kts | 190° |
| 2026-04-22 07:33 | 12.15057 | 15.00726 | 10034 ft | 273 kts | 190° |
| 2026-04-22 07:33 | 12.13173 | 15.00344 | 10856 ft | 279 kts | 189° |
| 2026-04-22 07:33 | 12.11250 | 14.99952 | 11647 ft | 284 kts | 189° |
| 2026-04-22 07:33 | 12.09293 | 14.99554 | 12355 ft | 289 kts | 189° |
| 2026-04-22 07:34 | 12.07307 | 14.99149 | 13110 ft | 293 kts | 189° |
| 2026-04-22 07:34 | 12.05298 | 14.98739 | 13841 ft | 297 kts | 189° |
| 2026-04-22 07:34 | 12.03275 | 14.98289 | 14507 ft | 300 kts | 194° |
| 2026-04-22 07:34 | 12.01319 | 14.97511 | 15191 ft | 302 kts | 203° |
| 2026-04-22 07:35 | 11.99429 | 14.96562 | 15938 ft | 303 kts | 205° |
| 2026-04-22 07:35 | 11.97534 | 14.95613 | 16711 ft | 304 kts | 204° |
| 2026-04-22 07:35 | 11.95603 | 14.94715 | 17519 ft | 305 kts | 203° |
| 2026-04-22 07:35 | 11.93664 | 14.93821 | 18303 ft | 307 kts | 203° |
| 2026-04-22 07:36 | 11.91726 | 14.92902 | 19000 ft | 308 kts | 204° |
| 2026-04-22 07:36 | 11.89782 | 14.91973 | 19723 ft | 309 kts | 204° |
| 2026-04-22 07:36 | 11.87821 | 14.91047 | 20412 ft | 313 kts | 204° |
| 2026-04-22 07:36 | 11.85839 | 14.90114 | 21129 ft | 315 kts | 204° |
| 2026-04-22 07:37 | 11.83840 | 14.89171 | 21833 ft | 318 kts | 204° |
| 2026-04-22 07:37 | 11.81823 | 14.88216 | 22546 ft | 321 kts | 204° |
| 2026-04-22 07:37 | 11.79789 | 14.87255 | 23274 ft | 323 kts | 204° |
| 2026-04-22 07:37 | 11.77739 | 14.86288 | 23868 ft | 327 kts | 204° |
| 2026-04-22 07:38 | 11.75656 | 14.85305 | 24393 ft | 332 kts | 205° |
| 2026-04-22 07:38 | 11.73544 | 14.84308 | 24951 ft | 337 kts | 206° |
| 2026-04-22 07:38 | 11.71401 | 14.83295 | 25455 ft | 343 kts | 206° |
| 2026-04-22 07:38 | 11.69219 | 14.82265 | 25968 ft | 349 kts | 206° |
| 2026-04-22 07:39 | 11.67001 | 14.81220 | 26508 ft | 354 kts | 207° |
| 2026-04-22 07:39 | 11.64755 | 14.80160 | 27039 ft | 359 kts | 208° |
| 2026-04-22 07:39 | 11.62471 | 14.79082 | 27571 ft | 364 kts | 208° |
| 2026-04-22 07:39 | 11.60157 | 14.77991 | 28106 ft | 369 kts | 209° |
| 2026-04-22 07:40 | 11.57810 | 14.76884 | 28634 ft | 374 kts | 209° |
| 2026-04-22 07:40 | 11.55433 | 14.75764 | 29154 ft | 379 kts | 210° |
| 2026-04-22 07:40 | 11.53024 | 14.74629 | 29667 ft | 384 kts | 210° |
| 2026-04-22 07:40 | 11.50585 | 14.73479 | 30134 ft | 388 kts | 210° |
| 2026-04-22 07:41 | 11.48124 | 14.72321 | 30630 ft | 390 kts | 211° |
| 2026-04-22 07:41 | 11.45652 | 14.71157 | 31158 ft | 393 kts | 211° |
| 2026-04-22 07:41 | 11.43169 | 14.69988 | 31777 ft | 394 kts | 211° |
| 2026-04-22 07:41 | 11.40669 | 14.68810 | 32363 ft | 397 kts | 211° |
| 2026-04-22 07:42 | 11.38154 | 14.67626 | 32946 ft | 400 kts | 211° |
| 2026-04-22 07:42 | 11.35619 | 14.66433 | 33518 ft | 403 kts | 211° |
| 2026-04-22 07:42 | 11.33067 | 14.65233 | 34058 ft | 406 kts | 211° |
| 2026-04-22 07:42 | 11.30500 | 14.64025 | 34582 ft | 407 kts | 211° |
| 2026-04-22 07:43 | 11.27927 | 14.62816 | 35133 ft | 408 kts | 211° |
| 2026-04-22 07:43 | 11.25343 | 14.61601 | 35669 ft | 409 kts | 210° |
| 2026-04-22 07:43 | 11.22753 | 14.60383 | 36184 ft | 410 kts | 210° |
| 2026-04-22 07:43 | 11.20157 | 14.59163 | 36604 ft | 412 kts | 210° |
| 2026-04-22 07:44 | 11.17546 | 14.57936 | 37010 ft | 414 kts | 210° |
| 2026-04-22 07:44 | 11.14930 | 14.56707 | 37441 ft | 415 kts | 209° |
| 2026-04-22 07:44 | 11.12306 | 14.55474 | 37873 ft | 416 kts | 209° |
| 2026-04-22 07:44 | 11.09673 | 14.54237 | 38287 ft | 418 kts | 209° |
| 2026-04-22 07:45 | 11.07033 | 14.52998 | 38711 ft | 418 kts | 208° |
| 2026-04-22 07:45 | 11.04398 | 14.51762 | 39204 ft | 415 kts | 208° |
| 2026-04-22 07:45 | 11.01780 | 14.50533 | 39690 ft | 413 kts | 208° |
| 2026-04-22 07:45 | 10.99175 | 14.49310 | 40193 ft | 411 kts | 208° |
| 2026-04-22 07:46 | 10.96593 | 14.48098 | 40690 ft | 409 kts | 208° |
| 2026-04-22 07:46 | 10.94049 | 14.46905 | 41166 ft | 406 kts | 207° |
| 2026-04-22 07:46 | 10.91484 | 14.45702 | 41631 ft | 405 kts | 207° |
| 2026-04-22 07:46 | 10.88936 | 14.44500 | 42068 ft | 403 kts | 207° |
| 2026-04-22 07:47 | 10.86399 | 14.43302 | 42492 ft | 401 kts | 207° |
| 2026-04-22 07:47 | 10.83871 | 14.42111 | 42907 ft | 400 kts | 207° |
| 2026-04-22 07:47 | 10.81352 | 14.40926 | 43301 ft | 398 kts | 207° |
| 2026-04-22 07:47 | 10.78840 | 14.39744 | 43674 ft | 397 kts | 206° |
| 2026-04-22 07:48 | 10.76340 | 14.38566 | 44026 ft | 396 kts | 206° |
| 2026-04-22 07:48 | 10.73840 | 14.37389 | 44362 ft | 395 kts | 206° |
| 2026-04-22 07:48 | 10.71346 | 14.36216 | 44669 ft | 394 kts | 206° |
| 2026-04-22 07:48 | 10.68861 | 14.35047 | 44904 ft | 394 kts | 206° |
| 2026-04-22 07:49 | 10.66342 | 14.33862 | 45106 ft | 394 kts | 206° |
| 2026-04-22 07:49 | 10.63856 | 14.32693 | 45314 ft | 394 kts | 206° |
| 2026-04-22 07:49 | 10.61398 | 14.31537 | 45518 ft | 394 kts | 206° |
| 2026-04-22 07:49 | 10.58911 | 14.30368 | 45709 ft | 394 kts | 206° |
| 2026-04-22 07:50 | 10.56424 | 14.29198 | 45896 ft | 394 kts | 206° |
| 2026-04-22 07:50 | 10.53928 | 14.28025 | 46059 ft | 395 kts | 206° |
| 2026-04-22 07:50 | 10.51435 | 14.26854 | 46235 ft | 395 kts | 206° |
| 2026-04-22 07:50 | 10.48944 | 14.25684 | 46411 ft | 395 kts | 206° |
| 2026-04-22 07:51 | 10.46481 | 14.24456 | 46539 ft | 394 kts | 211° |
| 2026-04-22 07:51 | 10.44245 | 14.22857 | 46683 ft | 393 kts | 219° |
| 2026-04-22 07:51 | 10.42117 | 14.21112 | 46847 ft | 393 kts | 220° |
| 2026-04-22 07:51 | 10.39965 | 14.19372 | 46846 ft | 398 kts | 219° |
| 2026-04-22 07:52 | 10.35561 | 14.15878 | 46844 ft | 406 kts | 219° |
| 2026-04-22 07:52 | 10.31084 | 14.12279 | 46849 ft | 414 kts | 219° |
| 2026-04-22 07:53 | 10.26509 | 14.08627 | 46849 ft | 422 kts | 219° |
| 2026-04-22 07:53 | 10.21853 | 14.04900 | 46844 ft | 430 kts | 219° |
| 2026-04-22 07:54 | 10.17116 | 14.01115 | 46838 ft | 437 kts | 219° |
| 2026-04-22 07:54 | 10.12306 | 13.97270 | 46841 ft | 444 kts | 219° |
| 2026-04-22 07:55 | 10.07420 | 13.93368 | 46841 ft | 450 kts | 219° |
| 2026-04-22 07:55 | 10.02467 | 13.89413 | 46851 ft | 456 kts | 219° |
| 2026-04-22 07:56 | 9.97450 | 13.85410 | 46848 ft | 461 kts | 219° |
| 2026-04-22 07:56 | 9.92382 | 13.81366 | 46847 ft | 465 kts | 219° |
| 2026-04-22 07:57 | 9.87274 | 13.77292 | 46846 ft | 469 kts | 219° |
| 2026-04-22 07:57 | 9.82134 | 13.73195 | 46837 ft | 471 kts | 219° |
| 2026-04-22 07:58 | 9.76965 | 13.69077 | 46846 ft | 473 kts | 219° |
| 2026-04-22 07:58 | 9.71777 | 13.64944 | 46842 ft | 475 kts | 219° |
| 2026-04-22 07:59 | 9.66572 | 13.60800 | 46836 ft | 476 kts | 219° |
| 2026-04-22 07:59 | 9.61354 | 13.56647 | 46849 ft | 477 kts | 219° |
| 2026-04-22 08:00 | 9.56128 | 13.52490 | 46852 ft | 478 kts | 219° |
| 2026-04-22 08:00 | 9.50896 | 13.48329 | 46861 ft | 478 kts | 219° |
| 2026-04-22 08:01 | 9.46545 | 13.44871 | 46862 ft | 479 kts | 219° |
| 2026-04-22 08:01 | 9.41307 | 13.40708 | 46864 ft | 479 kts | 219° |
| 2026-04-22 08:02 | 9.36067 | 13.36546 | 46861 ft | 479 kts | 219° |
| 2026-04-22 08:02 | 9.30732 | 13.32516 | 46855 ft | 479 kts | 216° |
| 2026-04-22 08:03 | 9.25261 | 13.28669 | 46850 ft | 479 kts | 216° |
| 2026-04-22 08:03 | 9.19815 | 13.24783 | 46840 ft | 479 kts | 216° |
| 2026-04-22 08:04 | 9.14309 | 13.20892 | 46834 ft | 480 kts | 216° |
| 2026-04-22 08:04 | 9.08841 | 13.17010 | 46838 ft | 480 kts | 216° |
| 2026-04-22 08:05 | 9.03364 | 13.13132 | 46833 ft | 481 kts | 216° |
| 2026-04-22 08:05 | 8.97887 | 13.09252 | 46842 ft | 481 kts | 216° |
| 2026-04-22 08:06 | 8.92403 | 13.05370 | 46846 ft | 481 kts | 216° |
| 2026-04-22 08:06 | 8.86916 | 13.01486 | 46844 ft | 482 kts | 216° |
| 2026-04-22 08:07 | 8.81428 | 12.97603 | 46850 ft | 482 kts | 216° |
| 2026-04-22 08:07 | 8.75937 | 12.93720 | 46861 ft | 481 kts | 216° |
| 2026-04-22 08:08 | 8.70449 | 12.89841 | 46858 ft | 482 kts | 216° |
| 2026-04-22 08:08 | 8.64959 | 12.85961 | 46854 ft | 482 kts | 216° |
| 2026-04-22 08:09 | 8.59465 | 12.82080 | 46854 ft | 482 kts | 216° |
| 2026-04-22 08:09 | 8.53969 | 12.78198 | 46858 ft | 482 kts | 216° |
| 2026-04-22 08:10 | 8.48477 | 12.74321 | 46856 ft | 482 kts | 216° |
| 2026-04-22 08:10 | 8.43017 | 12.70468 | 46856 ft | 482 kts | 216° |
| 2026-04-22 08:11 | 8.37520 | 12.66590 | 46857 ft | 482 kts | 216° |
| 2026-04-22 08:11 | 8.32017 | 12.62710 | 46860 ft | 482 kts | 216° |
| 2026-04-22 08:12 | 8.26512 | 12.58829 | 46862 ft | 483 kts | 216° |
| 2026-04-22 08:12 | 8.21008 | 12.54950 | 46868 ft | 483 kts | 216° |
| 2026-04-22 08:13 | 8.15503 | 12.51073 | 46870 ft | 483 kts | 215° |
| 2026-04-22 08:13 | 8.09992 | 12.47191 | 46866 ft | 483 kts | 215° |
| 2026-04-22 08:14 | 8.04482 | 12.43312 | 46888 ft | 483 kts | 215° |
| 2026-04-22 08:14 | 7.98969 | 12.39433 | 46881 ft | 483 kts | 215° |
| 2026-04-22 08:15 | 7.93448 | 12.35545 | 46888 ft | 484 kts | 215° |
| 2026-04-22 08:15 | 7.87928 | 12.31660 | 46891 ft | 484 kts | 215° |
| 2026-04-22 08:16 | 7.82400 | 12.27770 | 46901 ft | 484 kts | 215° |
| 2026-04-22 08:16 | 7.76871 | 12.23881 | 46907 ft | 485 kts | 215° |
| 2026-04-22 08:17 | 7.71339 | 12.19992 | 46915 ft | 485 kts | 215° |
| 2026-04-22 08:17 | 7.65801 | 12.16099 | 46913 ft | 485 kts | 214° |
| 2026-04-22 08:18 | 7.60258 | 12.12204 | 46921 ft | 486 kts | 214° |
| 2026-04-22 08:18 | 7.54711 | 12.08307 | 46928 ft | 486 kts | 214° |
| 2026-04-22 08:19 | 7.49157 | 12.04407 | 46939 ft | 487 kts | 214° |
| 2026-04-22 08:19 | 7.43600 | 12.00506 | 46944 ft | 487 kts | 214° |
| 2026-04-22 08:20 | 7.38039 | 11.96603 | 46952 ft | 487 kts | 214° |
| 2026-04-22 08:20 | 7.32475 | 11.92699 | 46961 ft | 488 kts | 214° |
| 2026-04-22 08:21 | 7.26905 | 11.88793 | 46961 ft | 488 kts | 214° |
| 2026-04-22 08:21 | 7.21335 | 11.84887 | 46943 ft | 488 kts | 214° |
| 2026-04-22 08:22 | 7.15762 | 11.80981 | 46962 ft | 488 kts | 214° |
| 2026-04-22 08:22 | 7.10190 | 11.77077 | 46961 ft | 488 kts | 214° |
| 2026-04-22 08:23 | 7.04615 | 11.73171 | 46952 ft | 488 kts | 214° |
| 2026-04-22 08:23 | 6.99004 | 11.69242 | 46949 ft | 489 kts | 214° |
| 2026-04-22 08:24 | 6.93461 | 11.65362 | 46951 ft | 488 kts | 214° |
| 2026-04-22 08:24 | 6.87884 | 11.61458 | 46957 ft | 488 kts | 214° |
| 2026-04-22 08:25 | 6.82311 | 11.57559 | 46971 ft | 488 kts | 214° |
| 2026-04-22 08:25 | 6.76732 | 11.53657 | 46963 ft | 488 kts | 214° |
| 2026-04-22 08:26 | 6.71121 | 11.49733 | 46967 ft | 488 kts | 213° |
| 2026-04-22 08:26 | 6.65551 | 11.45839 | 46966 ft | 488 kts | 213° |
| 2026-04-22 08:27 | 6.60018 | 11.41972 | 46966 ft | 487 kts | 213° |
| 2026-04-22 08:27 | 6.54453 | 11.38084 | 46975 ft | 487 kts | 213° |
| 2026-04-22 08:28 | 6.48851 | 11.34171 | 46966 ft | 487 kts | 213° |
| 2026-04-22 08:28 | 6.43323 | 11.30311 | 46959 ft | 487 kts | 213° |
| 2026-04-22 08:29 | 6.37725 | 11.26404 | 46963 ft | 487 kts | 213° |
| 2026-04-22 08:29 | 6.32266 | 11.22595 | 46954 ft | 487 kts | 213° |
| 2026-04-22 08:30 | 6.26706 | 11.18716 | 46951 ft | 486 kts | 213° |
| 2026-04-22 08:30 | 6.21145 | 11.14837 | 46962 ft | 486 kts | 213° |
| 2026-04-22 08:31 | 6.15595 | 11.10968 | 46962 ft | 485 kts | 213° |
| 2026-04-22 08:32 | 6.07269 | 11.05164 | 46959 ft | 486 kts | 213° |
| 2026-04-22 08:32 | 6.01716 | 11.01295 | 46952 ft | 486 kts | 213° |
| 2026-04-22 08:33 | 5.96164 | 10.97427 | 46953 ft | 485 kts | 213° |
| 2026-04-22 08:33 | 5.90615 | 10.93562 | 46957 ft | 485 kts | 213° |
| 2026-04-22 08:34 | 5.85074 | 10.89704 | 46965 ft | 485 kts | 213° |
| 2026-04-22 08:34 | 5.79523 | 10.85840 | 46952 ft | 485 kts | 213° |
| 2026-04-22 08:35 | 5.73972 | 10.81977 | 46946 ft | 485 kts | 213° |
| 2026-04-22 08:35 | 5.68429 | 10.78119 | 46961 ft | 485 kts | 213° |
| 2026-04-22 08:36 | 5.62836 | 10.74351 | 46940 ft | 483 kts | 209° |
| 2026-04-22 08:36 | 5.57103 | 10.70835 | 46942 ft | 483 kts | 210° |
| 2026-04-22 08:37 | 5.51373 | 10.67313 | 46942 ft | 483 kts | 209° |
| 2026-04-22 08:37 | 5.45637 | 10.63802 | 46953 ft | 483 kts | 209° |
| 2026-04-22 08:38 | 5.39913 | 10.60285 | 46966 ft | 483 kts | 209° |
| 2026-04-22 08:38 | 5.34177 | 10.56774 | 46961 ft | 483 kts | 209° |
| 2026-04-22 08:39 | 5.28451 | 10.53261 | 46957 ft | 483 kts | 209° |
| 2026-04-22 08:39 | 5.22720 | 10.49752 | 46937 ft | 483 kts | 209° |
| 2026-04-22 08:39 | 5.19845 | 10.47989 | 46582 ft | 489 kts | 209° |
| 2026-04-22 08:40 | 5.16914 | 10.46195 | 45897 ft | 494 kts | 209° |
| 2026-04-22 08:40 | 5.13990 | 10.44402 | 45239 ft | 491 kts | 209° |
| 2026-04-22 08:40 | 5.11078 | 10.42617 | 44582 ft | 489 kts | 209° |
| 2026-04-22 08:40 | 5.08176 | 10.40842 | 43882 ft | 488 kts | 209° |
| 2026-04-22 08:41 | 5.05272 | 10.39064 | 43232 ft | 491 kts | 209° |
| 2026-04-22 08:41 | 5.02349 | 10.37275 | 42580 ft | 494 kts | 209° |
| 2026-04-22 08:41 | 4.99404 | 10.35471 | 41924 ft | 497 kts | 209° |
| 2026-04-22 08:41 | 4.96446 | 10.33660 | 41265 ft | 500 kts | 209° |
| 2026-04-22 08:42 | 4.94478 | 10.32456 | 40825 ft | 502 kts | 209° |
| 2026-04-22 08:42 | 4.91484 | 10.30624 | 40155 ft | 505 kts | 209° |
| 2026-04-22 08:42 | 4.88482 | 10.28786 | 39481 ft | 508 kts | 209° |
| 2026-04-22 08:42 | 4.85458 | 10.26936 | 38809 ft | 511 kts | 209° |
| 2026-04-22 08:43 | 4.82415 | 10.25074 | 38077 ft | 514 kts | 210° |
| 2026-04-22 08:43 | 4.79344 | 10.23196 | 37405 ft | 520 kts | 210° |
| 2026-04-22 08:43 | 4.76245 | 10.21301 | 36720 ft | 525 kts | 210° |
| 2026-04-22 08:43 | 4.73110 | 10.19383 | 36021 ft | 531 kts | 211° |
| 2026-04-22 08:44 | 4.69936 | 10.17440 | 35321 ft | 537 kts | 211° |
| 2026-04-22 08:44 | 4.66731 | 10.15481 | 34598 ft | 541 kts | 212° |
| 2026-04-22 08:44 | 4.63503 | 10.13508 | 33872 ft | 546 kts | 212° |
| 2026-04-22 08:44 | 4.60244 | 10.11514 | 33109 ft | 551 kts | 212° |
| 2026-04-22 08:45 | 4.56951 | 10.09501 | 32374 ft | 557 kts | 213° |
| 2026-04-22 08:45 | 4.53628 | 10.07469 | 31630 ft | 562 kts | 213° |
| 2026-04-22 08:45 | 4.50269 | 10.05417 | 30875 ft | 568 kts | 213° |
| 2026-04-22 08:45 | 4.46893 | 10.03354 | 30126 ft | 566 kts | 213° |
| 2026-04-22 08:46 | 4.43542 | 10.01307 | 29330 ft | 560 kts | 213° |
| 2026-04-22 08:46 | 4.40247 | 9.99294 | 28610 ft | 551 kts | 213° |
| 2026-04-22 08:46 | 4.36999 | 9.97308 | 27886 ft | 543 kts | 213° |
| 2026-04-22 08:46 | 4.33798 | 9.95353 | 27176 ft | 535 kts | 212° |
| 2026-04-22 08:47 | 4.30647 | 9.93429 | 26480 ft | 527 kts | 212° |
| 2026-04-22 08:47 | 4.27531 | 9.91525 | 25793 ft | 520 kts | 212° |
| 2026-04-22 08:47 | 4.24471 | 9.89656 | 25115 ft | 512 kts | 211° |
| 2026-04-22 08:47 | 4.21444 | 9.87808 | 24453 ft | 505 kts | 211° |
| 2026-04-22 08:48 | 4.18465 | 9.85989 | 23795 ft | 498 kts | 211° |
| 2026-04-22 08:48 | 4.15526 | 9.84195 | 23102 ft | 491 kts | 210° |
| 2026-04-22 08:48 | 4.12621 | 9.82422 | 22458 ft | 487 kts | 210° |
| 2026-04-22 08:48 | 4.09741 | 9.80665 | 21820 ft | 482 kts | 210° |
| 2026-04-22 08:49 | 4.06894 | 9.78927 | 21196 ft | 478 kts | 210° |
| 2026-04-22 08:49 | 4.04066 | 9.77198 | 20570 ft | 473 kts | 210° |
| 2026-04-22 08:49 | 4.01465 | 9.75204 | 19893 ft | 472 kts | 224° |
| 2026-04-22 08:49 | 3.99512 | 9.72583 | 19295 ft | 471 kts | 239° |
| 2026-04-22 08:50 | 3.98326 | 9.69543 | 18698 ft | 468 kts | 254° |
| 2026-04-22 08:50 | 3.97602 | 9.66375 | 18103 ft | 466 kts | 257° |
| 2026-04-22 08:50 | 3.96944 | 9.63205 | 17454 ft | 462 kts | 257° |
| 2026-04-22 08:50 | 3.96274 | 9.60070 | 16840 ft | 459 kts | 257° |
| 2026-04-22 08:51 | 3.95566 | 9.56959 | 16234 ft | 456 kts | 256° |
| 2026-04-22 08:51 | 3.94871 | 9.53870 | 15639 ft | 454 kts | 257° |
| 2026-04-22 08:51 | 3.94207 | 9.50792 | 15041 ft | 451 kts | 257° |
| 2026-04-22 08:51 | 3.93544 | 9.47733 | 14450 ft | 448 kts | 257° |
| 2026-04-22 08:52 | 3.92868 | 9.44696 | 13868 ft | 445 kts | 257° |
| 2026-04-22 08:52 | 3.92196 | 9.41684 | 13255 ft | 442 kts | 257° |
| 2026-04-22 08:52 | 3.91537 | 9.38675 | 12674 ft | 440 kts | 258° |
| 2026-04-22 08:52 | 3.90886 | 9.35696 | 12103 ft | 437 kts | 258° |
| 2026-04-22 08:53 | 3.90231 | 9.32737 | 11531 ft | 428 kts | 258° |
| 2026-04-22 08:53 | 3.89611 | 9.29944 | 11002 ft | 395 kts | 258° |
| 2026-04-22 08:53 | 3.89040 | 9.27350 | 10513 ft | 369 kts | 258° |
| 2026-04-22 08:53 | 3.88504 | 9.24915 | 10058 ft | 348 kts | 258° |
| 2026-04-22 08:54 | 3.88008 | 9.22672 | 9622 ft | 313 kts | 258° |
| 2026-04-22 08:54 | 3.87538 | 9.20541 | 9200 ft | 310 kts | 258° |
| 2026-04-22 08:54 | 3.87080 | 9.18457 | 8806 ft | 303 kts | 258° |
| 2026-04-22 08:54 | 3.86629 | 9.16412 | 8420 ft | 299 kts | 258° |
| 2026-04-22 08:55 | 3.86184 | 9.14397 | 8035 ft | 295 kts | 258° |
| 2026-04-22 08:55 | 3.85748 | 9.12400 | 7645 ft | 291 kts | 259° |
| 2026-04-22 08:55 | 3.85716 | 9.10408 | 7190 ft | 285 kts | 282° |
| 2026-04-22 08:55 | 3.86195 | 9.08496 | 6903 ft | 283 kts | 286° |
| 2026-04-22 08:56 | 3.86674 | 9.06596 | 6544 ft | 281 kts | 284° |
| 2026-04-22 08:56 | 3.87123 | 9.04703 | 6160 ft | 278 kts | 284° |
| 2026-04-22 08:56 | 3.87566 | 9.02831 | 5785 ft | 275 kts | 284° |
| 2026-04-22 08:56 | 3.88014 | 9.00983 | 5427 ft | 271 kts | 284° |
| 2026-04-22 08:57 | 3.88455 | 8.99164 | 5067 ft | 265 kts | 284° |
| 2026-04-22 08:57 | 3.88880 | 8.97402 | 4721 ft | 255 kts | 283° |
| 2026-04-22 08:57 | 3.89280 | 8.95741 | 4388 ft | 239 kts | 283° |
| 2026-04-22 08:57 | 3.89664 | 8.94147 | 4075 ft | 234 kts | 283° |
| 2026-04-22 08:58 | 3.90043 | 8.92578 | 3837 ft | 231 kts | 283° |
| 2026-04-22 08:58 | 3.90419 | 8.91017 | 3552 ft | 229 kts | 283° |
| 2026-04-22 08:58 | 3.90791 | 8.89472 | 3255 ft | 227 kts | 283° |
| 2026-04-22 08:58 | 3.91153 | 8.87972 | 2980 ft | 214 kts | 283° |
| 2026-04-22 08:59 | 3.91471 | 8.86572 | 2979 ft | 202 kts | 279° |
| 2026-04-22 08:59 | 3.91276 | 8.85276 | 2883 ft | 182 kts | 244° |
| 2026-04-22 08:59 | 3.90478 | 8.84336 | 2945 ft | 179 kts | 222° |
| 2026-04-22 08:59 | 3.89566 | 8.83491 | 2995 ft | 180 kts | 222° |
| 2026-04-22 09:00 | 3.88669 | 8.82677 | 2978 ft | 164 kts | 221° |
| 2026-04-22 09:00 | 3.87826 | 8.81920 | 2928 ft | 163 kts | 221° |
| 2026-04-22 09:00 | 3.86995 | 8.81173 | 2719 ft | 157 kts | 221° |
| 2026-04-22 09:00 | 3.86204 | 8.80462 | 2530 ft | 149 kts | 221° |
| 2026-04-22 09:01 | 3.85441 | 8.79776 | 2343 ft | 146 kts | 221° |
| 2026-04-22 09:01 | 3.84698 | 8.79108 | 2165 ft | 141 kts | 221° |
| 2026-04-22 09:01 | 3.83968 | 8.78452 | 1983 ft | 141 kts | 221° |
| 2026-04-22 09:01 | 3.83246 | 8.77803 | 1815 ft | 139 kts | 221° |
| 2026-04-22 09:02 | 3.82520 | 8.77158 | 1579 ft | 141 kts | 220° |
| 2026-04-22 09:02 | 3.81786 | 8.76505 | 1363 ft | 139 kts | 220° |
| 2026-04-22 09:02 | 3.81103 | 8.75854 | 1244 ft | 131 kts | 224° |
| 2026-04-22 09:02 | 3.80432 | 8.75228 | 1066 ft | 135 kts | 222° |
| 2026-04-22 09:03 | 3.79739 | 8.74599 | 907 ft | 132 kts | 221° |
| 2026-04-22 09:03 | 3.79054 | 8.73999 | 757 ft | 131 kts | 220° |
| 2026-04-22 09:03 | 3.78372 | 8.73395 | 584 ft | 131 kts | 221° |
| 2026-04-22 09:03 | 3.77680 | 8.72794 | 385 ft | 131 kts | 221° |
| 2026-04-22 09:04 | 3.77017 | 8.72194 | 250 ft | 127 kts | 221° |
| 2026-04-22 09:04 | 3.76356 | 8.71605 | 81 ft | 124 kts | 222° |
| 2026-04-22 09:04 | 3.75773 | 8.71086 | 64 ft | 98 kts | 222° |
| 2026-04-22 09:04 | 3.75390 | 8.70744 | 65 ft | 52 kts | 221° |
| 2026-04-22 09:05 | 3.75160 | 8.70541 | 69 ft | 43 kts | 221° |
| 2026-04-22 09:05 | 3.74984 | 8.70396 | 67 ft | 13 kts | 191° |
| 2026-04-22 09:05 | 3.74918 | 8.70444 | 67 ft | 0 kts | 130° |
| 2026-04-22 09:05 | 3.74917 | 8.70446 | 63 ft | 0 kts | 130° |
| 2026-04-22 09:06 | 3.74906 | 8.70459 | 67 ft | 8 kts | 130° |
| 2026-04-22 09:06 | 3.74877 | 8.70517 | 62 ft | 9 kts | 69° |
| 2026-04-22 09:06 | 3.74937 | 8.70579 | 66 ft | 16 kts | 43° |
| 2026-04-22 09:07 | 3.75028 | 8.70662 | 66 ft | 18 kts | 41° |
| 2026-04-22 09:07 | 3.75120 | 8.70743 | 66 ft | 18 kts | 42° |
| 2026-04-22 09:07 | 3.75212 | 8.70825 | 66 ft | 18 kts | 42° |
| 2026-04-22 09:07 | 3.75303 | 8.70907 | 66 ft | 17 kts | 41° |
| 2026-04-22 09:08 | 3.75394 | 8.70987 | 66 ft | 18 kts | 42° |
| 2026-04-22 09:08 | 3.75484 | 8.71070 | 66 ft | 18 kts | 42° |
| 2026-04-22 09:08 | 3.75577 | 8.71152 | 66 ft | 18 kts | 42° |
| 2026-04-22 09:08 | 3.75663 | 8.71227 | 66 ft | 13 kts | 33° |
| 2026-04-22 09:09 | 3.75728 | 8.71289 | 62 ft | 13 kts | 45° |
| 2026-04-22 09:09 | 3.75758 | 8.71357 | 66 ft | 11 kts | 118° |
| 2026-04-22 09:09 | 3.75774 | 8.71408 | 62 ft | 8 kts | 50° |
| 2026-04-22 09:09 | 3.75817 | 8.71446 | 66 ft | 9 kts | 40° |
| 2026-04-22 09:10 | 3.75864 | 8.71486 | 66 ft | 9 kts | 41° |
| 2026-04-22 09:10 | 3.75912 | 8.71524 | 66 ft | 8 kts | 8° |
| 2026-04-22 09:10 | 3.75946 | 8.71499 | 60 ft | 1 kts | 308° |
| 2026-04-22 09:10 | 3.75950 | 8.71494 | 61 ft | 1 kts | 308° |